createdAt,value
2022-10-01T13:56:13.352Z,21.13
2022-10-01T13:57:15.554Z,20.82
2022-10-01T14:54:43.765Z,21.22
2022-10-01T14:55:45.893Z,21.16
2022-10-01T14:56:44.742Z,21.06
2022-10-01T14:57:44.929Z,20.88
2022-10-01T15:00:55.291Z,20.79
2022-10-01T15:01:56.116Z,20.79
2022-10-01T15:02:56.123Z,20.84
2022-10-01T15:03:56.162Z,20.87
2022-10-01T15:04:56.113Z,20.89
2022-10-01T15:05:56.416Z,20.89
2022-10-01T15:06:56.024Z,20.87
2022-10-01T15:07:56.027Z,20.88
2022-10-01T15:08:56.069Z,20.91
2022-10-01T15:10:04.921Z,20.94
2022-10-01T15:10:55.979Z,20.95
2022-10-01T15:11:58.072Z,20.95
2022-10-01T15:12:55.969Z,20.92
2022-10-01T15:13:55.985Z,20.87
2022-10-01T15:14:56.795Z,20.70
2022-10-01T15:18:54.703Z,20.35
2022-10-01T15:19:54.780Z,20.31
2022-10-01T15:20:55.720Z,20.29
2022-10-01T15:21:55.787Z,20.33
2022-10-01T15:24:56.470Z,20.33
2022-10-01T15:25:57.337Z,20.36
2022-10-01T15:26:57.396Z,20.41
2022-10-01T15:37:06.766Z,21.04
2022-10-01T15:38:06.545Z,21.12
2022-10-01T15:39:07.305Z,21.19
2022-10-01T15:44:24.069Z,21.71
2022-10-01T15:44:48.685Z,21.79
2022-10-01T15:45:48.715Z,21.77
2022-10-01T15:46:49.599Z,21.67
2022-10-01T15:47:49.870Z,21.67
2022-10-01T15:48:49.426Z,21.72
2022-10-01T15:49:48.693Z,21.64
2022-10-01T15:50:48.563Z,21.61
2022-10-01T15:51:48.595Z,21.53
2022-10-01T15:52:48.636Z,21.52
2022-10-01T15:56:07.066Z,22.02
2022-10-01T15:57:08.006Z,22.06
2022-10-01T15:58:09.235Z,22.06
2022-10-01T15:59:08.793Z,22.00
2022-10-01T16:00:10.761Z,22.02
2022-10-01T16:01:08.183Z,22.07
2022-10-01T16:02:07.978Z,22.25
2022-10-01T16:03:07.972Z,22.42
2022-10-01T16:04:09.855Z,22.47
2022-10-01T16:05:07.973Z,22.49
2022-10-01T16:06:10.383Z,22.62
2022-10-01T16:07:07.927Z,22.82
2022-10-01T16:08:07.854Z,22.88
2022-10-01T16:09:07.885Z,22.80
2022-10-01T16:10:07.923Z,22.80
2022-10-01T16:11:08.786Z,22.75
2022-10-01T16:12:08.766Z,22.72
2022-10-01T16:13:46.359Z,22.72
2022-10-01T16:14:07.817Z,22.68
2022-10-01T16:15:08.207Z,22.72
2022-10-01T16:16:07.945Z,22.88
2022-10-01T16:17:07.790Z,23.09
2022-10-01T16:18:07.824Z,23.15
2022-10-01T16:19:07.809Z,22.85
2022-10-01T16:20:10.054Z,22.61
2022-10-01T16:21:08.698Z,22.35
2022-10-01T16:22:10.285Z,22.12
2022-10-01T16:37:18.508Z,23.05
2022-10-01T16:38:10.234Z,23.16
2022-10-01T16:39:32.624Z,23.19
2022-10-01T16:40:11.683Z,23.19
2022-10-01T16:41:08.307Z,22.98
2022-10-01T16:42:23.695Z,22.90
2022-10-01T16:43:08.293Z,22.77
2022-10-01T16:44:32.605Z,22.61
2022-10-01T16:45:08.271Z,22.45
2022-10-01T16:46:08.988Z,22.31
2022-10-01T16:56:04.277Z,22.67
2022-10-01T16:57:07.627Z,22.70
2022-10-01T16:58:05.016Z,22.75
2022-10-01T16:59:05.410Z,22.72
2022-10-01T17:00:04.477Z,22.60
2022-10-01T17:01:04.491Z,22.54
2022-10-01T17:02:04.483Z,22.58
2022-10-01T17:03:05.739Z,22.62
2022-10-01T17:04:09.830Z,22.70
2022-10-01T17:05:05.001Z,22.75
2022-10-01T17:06:05.266Z,22.77
2022-10-01T17:07:05.961Z,22.80
2022-10-01T17:08:04.359Z,22.88
2022-10-01T17:09:04.313Z,22.90
2022-10-01T17:10:05.050Z,22.86
2022-10-01T17:11:04.997Z,22.80
2022-10-01T17:12:05.297Z,22.82
2022-10-01T17:13:04.297Z,22.86
2022-10-01T17:14:04.975Z,22.92
2022-10-01T17:15:04.220Z,22.98
2022-10-01T17:16:04.255Z,23.10
2022-10-01T17:17:04.211Z,23.10
2022-10-01T17:18:05.012Z,22.91
2022-10-01T17:19:04.981Z,22.58
2022-10-01T17:20:04.241Z,22.40
2022-10-01T17:21:04.229Z,22.37
2022-10-01T17:22:04.174Z,22.40
2022-10-01T17:23:04.135Z,22.43
2022-10-01T17:24:04.204Z,22.54
2022-10-01T17:25:04.666Z,22.60
2022-10-01T17:26:04.985Z,22.72
2022-10-01T17:27:04.120Z,22.72
2022-10-01T17:28:04.180Z,22.72
2022-10-01T17:29:06.086Z,22.58
2022-10-01T17:30:13.741Z,22.54
2022-10-01T17:31:06.800Z,22.57
2022-10-01T17:32:04.133Z,22.70
2022-10-01T17:33:04.038Z,22.88
2022-10-01T17:34:04.053Z,22.86
2022-10-01T17:35:04.015Z,22.85
2022-10-01T17:36:04.010Z,22.80
2022-10-01T17:37:04.059Z,22.79
2022-10-01T17:38:03.985Z,22.70
2022-10-01T17:39:04.943Z,22.58
2022-10-01T17:40:03.996Z,22.54
2022-10-01T17:41:03.978Z,22.54
2022-10-01T17:42:04.699Z,22.67
2022-10-01T17:43:03.978Z,22.76
2022-10-01T17:44:05.436Z,22.79
2022-10-01T17:45:04.493Z,22.82
2022-10-01T17:46:05.841Z,22.80
2022-10-01T17:47:03.922Z,22.68
2022-10-01T17:48:03.860Z,22.64
2022-10-01T17:49:04.867Z,22.62
2022-10-01T17:50:03.872Z,22.60
2022-10-01T17:51:03.879Z,22.64
2022-10-01T17:52:03.878Z,22.68
2022-10-01T17:53:03.873Z,22.67
2022-10-01T17:54:03.790Z,22.65
2022-10-01T17:55:03.833Z,22.73
2022-10-01T17:56:03.807Z,22.77
2022-10-01T17:57:03.812Z,22.79
2022-10-01T17:58:03.755Z,22.86
2022-10-01T17:59:03.742Z,22.92
2022-10-01T18:00:04.741Z,22.97
2022-10-01T18:01:04.716Z,23.04
2022-10-01T18:02:18.591Z,23.02
2022-10-01T18:03:03.840Z,23.05
2022-10-01T18:04:03.765Z,23.09
2022-10-01T18:05:03.799Z,23.09
2022-10-01T18:06:04.682Z,23.07
2022-10-01T18:07:05.476Z,23.09
2022-10-01T18:08:03.683Z,23.09
2022-10-01T18:09:05.193Z,23.09
2022-10-01T18:10:04.572Z,23.10
2022-10-01T18:11:07.249Z,23.12
2022-10-01T18:12:08.623Z,23.17
2022-10-01T18:13:03.782Z,23.25
2022-10-01T18:14:04.591Z,23.36
2022-10-01T18:15:03.756Z,23.42
2022-10-01T18:16:03.794Z,23.46
2022-10-01T18:17:03.544Z,23.50
2022-10-01T18:20:04.305Z,23.42
2022-10-01T18:21:03.626Z,23.31
2022-10-01T18:22:11.832Z,23.31
2022-10-01T18:23:04.024Z,23.31
2022-10-01T18:24:05.104Z,23.35
2022-10-01T18:25:03.532Z,23.39
2022-10-01T18:26:03.527Z,23.42
2022-10-01T18:27:03.557Z,23.43
2022-10-01T18:28:03.550Z,23.48
2022-10-01T18:29:03.499Z,23.48
2022-10-01T18:30:03.529Z,23.47
2022-10-01T18:31:03.575Z,23.47
2022-10-01T18:32:04.318Z,23.48
2022-10-01T18:33:03.926Z,23.43
2022-10-01T18:34:03.484Z,23.32
2022-10-01T18:35:03.485Z,23.27
2022-10-01T18:36:03.494Z,23.25
2022-10-01T18:37:04.040Z,23.23
2022-10-01T18:38:03.503Z,23.23
2022-10-01T18:39:03.517Z,23.23
2022-10-01T18:40:03.947Z,23.23
2022-10-01T18:41:03.965Z,23.22
2022-10-01T18:42:03.525Z,23.22
2022-10-01T18:43:03.986Z,23.19
2022-10-01T18:44:03.277Z,23.17
2022-10-01T18:45:03.328Z,23.16
2022-10-01T18:46:04.050Z,23.09
2022-10-01T18:47:03.323Z,22.97
2022-10-01T18:48:03.342Z,22.85
2022-10-01T18:49:03.474Z,22.80
2022-10-01T18:50:03.150Z,22.72
2022-10-01T18:51:03.141Z,22.70
2022-10-01T18:52:04.064Z,22.72
2022-10-01T18:53:03.180Z,22.73
2022-10-01T18:54:03.108Z,22.76
2022-10-01T18:55:05.030Z,22.77
2022-10-01T18:56:04.192Z,22.77
2022-10-01T18:57:03.131Z,22.76
2022-10-01T18:58:03.093Z,22.75
2022-10-01T18:59:03.124Z,22.64
2022-10-01T19:00:04.062Z,22.60
2022-10-01T19:01:03.391Z,22.52
2022-10-01T19:02:04.650Z,22.52
2022-10-01T19:03:03.952Z,22.52
2022-10-01T19:04:03.097Z,22.54
2022-10-01T19:05:03.046Z,22.52
2022-10-01T19:06:03.064Z,22.46
2022-10-01T19:07:03.023Z,22.42
2022-10-01T19:08:03.804Z,22.43
2022-10-01T19:09:07.212Z,22.45
2022-10-01T19:10:02.980Z,22.49
2022-10-01T19:11:02.984Z,22.49
2022-10-01T19:12:02.939Z,22.49
2022-10-01T19:13:03.002Z,22.51
2022-10-01T19:14:02.954Z,22.55
2022-10-01T19:15:02.931Z,22.58
2022-10-01T19:16:03.745Z,22.58
2022-10-01T19:17:02.854Z,22.57
2022-10-01T19:18:02.896Z,22.47
2022-10-01T19:19:04.829Z,22.35
2022-10-01T19:20:02.876Z,22.24
2022-10-01T19:21:02.834Z,22.17
2022-10-01T19:22:03.764Z,22.03
2022-10-01T19:23:02.836Z,21.86
2022-10-01T19:24:02.777Z,21.80
2022-10-01T19:25:02.802Z,21.71
2022-10-01T19:26:02.788Z,21.61
2022-10-01T19:27:03.543Z,21.50
2022-10-01T19:28:03.780Z,21.44
2022-10-01T19:29:03.595Z,21.42
2022-10-01T19:30:02.772Z,21.34
2022-10-01T19:31:03.650Z,21.27
2022-10-01T19:32:04.184Z,21.16
2022-10-01T19:33:02.702Z,21.06
2022-10-01T19:34:02.732Z,20.98
2022-10-01T19:35:02.706Z,20.92
2022-10-01T19:36:02.723Z,20.87
2022-10-01T19:37:02.714Z,20.82
2022-10-01T19:38:02.663Z,20.80
2022-10-01T19:39:02.676Z,20.74
2022-10-01T19:40:03.491Z,20.66
2022-10-01T19:41:04.971Z,20.64
2022-10-01T19:42:02.645Z,20.62
2022-10-01T19:43:03.546Z,20.61
2022-10-01T19:44:02.626Z,20.62
2022-10-01T19:45:02.554Z,20.62
2022-10-01T19:46:02.583Z,20.54
2022-10-01T19:47:02.691Z,20.50
2022-10-01T19:48:05.004Z,20.47
2022-10-01T19:49:02.575Z,20.42
2022-10-01T19:50:02.538Z,20.38
2022-10-01T19:51:04.402Z,20.39
2022-10-01T19:52:02.496Z,20.39
2022-10-01T19:53:02.513Z,20.36
2022-10-01T19:54:03.503Z,20.35
2022-10-01T19:55:05.038Z,20.31
2022-10-01T19:56:02.494Z,20.31
2022-10-01T19:57:03.088Z,20.29
2022-10-01T19:58:02.466Z,20.31
2022-10-01T19:59:04.986Z,20.31
2022-10-01T20:00:03.596Z,20.32
2022-10-01T20:01:02.423Z,20.32
2022-10-01T20:02:03.685Z,20.32
2022-10-01T20:03:02.365Z,20.33
2022-10-01T20:04:02.348Z,20.36
2022-10-01T20:05:03.854Z,20.36
2022-10-01T20:06:01.343Z,20.38
2022-10-01T20:07:03.078Z,20.33
2022-10-01T20:08:02.317Z,20.33
2022-10-01T20:09:02.339Z,20.29
2022-10-01T20:10:05.630Z,20.26
2022-10-01T20:11:02.321Z,20.21
2022-10-01T20:12:03.061Z,20.18
2022-10-01T20:13:02.330Z,20.18
2022-10-01T20:14:02.958Z,20.18
2022-10-01T20:15:02.301Z,20.18
2022-10-01T20:16:02.314Z,20.14
2022-10-01T20:17:02.221Z,20.05
2022-10-01T20:18:02.202Z,20.01
2022-10-01T20:19:02.260Z,19.91
2022-10-01T20:20:07.586Z,19.78
2022-10-01T20:21:02.141Z,19.76
2022-10-01T20:22:02.158Z,19.68
2022-10-01T20:23:03.862Z,19.63
2022-10-01T20:24:02.127Z,19.63
2022-10-01T20:25:03.045Z,19.59
2022-10-01T20:26:02.157Z,19.54
2022-10-01T20:27:02.113Z,19.48
2022-10-01T20:28:02.120Z,19.44
2022-10-01T20:29:02.100Z,19.43
2022-10-01T20:30:02.057Z,19.40
2022-10-01T20:31:03.045Z,19.41
2022-10-01T20:32:02.050Z,19.40
2022-10-01T20:33:02.027Z,19.40
2022-10-01T20:34:02.064Z,19.39
2022-10-01T20:35:06.504Z,19.39
2022-10-01T20:36:02.015Z,19.39
2022-10-01T20:37:04.262Z,19.39
2022-10-01T20:38:02.713Z,19.39
2022-10-01T20:39:02.014Z,19.36
2022-10-01T20:40:01.956Z,19.36
2022-10-01T20:41:01.937Z,19.32
2022-10-01T20:42:01.933Z,19.31
2022-10-01T20:43:01.962Z,19.28
2022-10-01T20:44:01.926Z,19.29
2022-10-01T20:45:01.840Z,19.31
2022-10-01T20:46:01.913Z,19.28
2022-10-01T20:47:01.875Z,19.28
2022-10-01T20:48:01.871Z,19.25
2022-10-01T20:49:02.773Z,19.21
2022-10-01T20:50:08.829Z,19.16
2022-10-01T20:51:04.654Z,19.16
2022-10-01T20:52:06.316Z,19.13
2022-10-01T20:53:03.918Z,19.10
2022-10-01T20:54:02.614Z,19.11
2022-10-01T20:55:02.074Z,19.11
2022-10-01T20:56:01.742Z,19.08
2022-10-01T20:57:07.119Z,19.08
2022-10-01T20:58:01.828Z,19.07
2022-10-01T20:59:01.701Z,19.06
2022-10-01T21:00:02.723Z,19.02
2022-10-01T21:01:03.639Z,18.98
2022-10-01T21:02:02.859Z,18.92
2022-10-01T21:03:02.554Z,18.91
2022-10-01T21:04:25.941Z,18.88
2022-10-01T21:05:01.670Z,18.88
2022-10-01T21:06:01.721Z,18.84
2022-10-01T21:07:03.634Z,18.85
2022-10-01T21:08:03.335Z,18.82
2022-10-01T21:09:01.633Z,18.81
2022-10-01T21:10:03.173Z,18.81
2022-10-01T21:11:02.322Z,18.80
2022-10-01T21:12:05.250Z,18.76
2022-10-01T21:13:01.612Z,18.73
2022-10-01T21:14:02.102Z,18.72
2022-10-01T21:15:01.546Z,18.75
2022-10-01T21:16:01.607Z,18.72
2022-10-01T21:17:01.564Z,18.69
2022-10-01T21:18:01.527Z,18.65
2022-10-01T21:19:03.079Z,18.62
2022-10-01T21:20:01.559Z,18.63
